This is the latest recevied weather packets stored in our database for station/object E25RIV-1. If no packets are shown the sender has not sent any weather packets the latest 10 day(s).
| Time | Temp. | Humidity | Pressure | Rain* | Wind** | Luminosity | Snow |
|---|---|---|---|---|---|---|---|
| 1777867956 | 37.22° C | 51% | 995 hPa | - | - | 0 W/m² | - |
| 1777867332 | 36.67° C | 54% | 997 hPa | - | - | 0 W/m² | - |
| 1777866708 | 36.11° C | 55% | 997 hPa | - | - | 0 W/m² | - |
| 1777866084 | 36.67° C | 55% | 997 hPa | - | - | 0 W/m² | - |
| 1777865460 | 36.11° C | 57% | 998 hPa | - | - | 0 W/m² | - |
| 1777864836 | 36.67° C | 54% | 997 hPa | - | - | 0 W/m² | - |
| 1777864212 | 37.78° C | 52% | 995 hPa | - | - | 0 W/m² | - |
| 1777863588 | 37.22° C | 54% | 996 hPa | - | - | 0 W/m² | - |
| 1777862964 | 36.67° C | 60% | 999 hPa | - | - | 0 W/m² | - |
| 1777862340 | 35.56° C | 63% | 1000 hPa | - | - | 0 W/m² | - |
| 1777861716 | 35° C | 65% | 1001 hPa | - | - | 0 W/m² | - |
| 1777861092 | 35° C | 67% | 1002 hPa | - | - | 0 W/m² | - |
| 1777860468 | 35° C | 69% | 1002 hPa | - | - | 0 W/m² | - |
| 1777859843 | 34.44° C | 70% | 1002 hPa | - | - | 0 W/m² | - |
| 1777859219 | 34.44° C | 71% | 1003 hPa | - | - | 0 W/m² | - |
| 1777858595 | 34.44° C | 71% | 1002 hPa | - | - | 0 W/m² | - |
| 1777857971 | 33.89° C | 76% | 1004 hPa | - | - | 0 W/m² | - |
| 1777857347 | 33.89° C | 74% | 1003 hPa | - | - | 0 W/m² | - |
| 1777856723 | 34.44° C | 72% | 1003 hPa | - | - | 0 W/m² | - |
| 1777856099 | 35° C | 72% | 1002 hPa | - | - | 0 W/m² | - |
| 1777855475 | 34.44° C | 78% | 1003 hPa | - | - | 0 W/m² | - |
| 1777854851 | 32.78° C | 85% | 1004 hPa | - | - | 0 W/m² | - |
| 1777854227 | 33.33° C | 89% | 1004 hPa | - | - | 0 W/m² | - |
| 1777853603 | 31.67° C | 97% | 1004 hPa | - | - | 0 W/m² | - |
| 1777852979 | 30.56° C | 99% | 1005 hPa | - | - | 0 W/m² | - |
* Rain since midnight (hover to see other rain measurements)
** Current wind speed in m/s (hover to see current wind gust speed)